createdAt,value
2017-12-10T00:00:48.902Z,-2.30
2017-12-10T00:03:16.467Z,-2.30
2017-12-10T00:05:44.058Z,-2.30
2017-12-10T00:08:11.672Z,-2.30
2017-12-10T00:10:40.005Z,-2.30
2017-12-10T00:13:07.602Z,-2.30
2017-12-10T00:15:35.164Z,-2.20
2017-12-10T00:18:03.564Z,-1.90
2017-12-10T00:20:31.160Z,-2.00
2017-12-10T00:22:58.738Z,-1.80
2017-12-10T00:25:26.310Z,-1.70
2017-12-10T00:27:53.924Z,-1.60
2017-12-10T00:30:21.502Z,-1.60
2017-12-10T00:32:49.074Z,-1.60
2017-12-10T00:35:16.670Z,-1.60
2017-12-10T00:37:44.991Z,-1.60
2017-12-10T00:40:12.568Z,-1.60
2017-12-10T00:42:40.161Z,-1.60
2017-12-10T00:45:08.507Z,-1.60
2017-12-10T00:47:36.102Z,-1.60
2017-12-10T00:50:04.474Z,-1.70
2017-12-10T00:52:32.052Z,-1.60
2017-12-10T00:55:00.377Z,-1.70
2017-12-10T00:57:27.978Z,-1.70
2017-12-10T00:59:56.314Z,-1.80
2017-12-10T01:02:23.867Z,-1.80
2017-12-10T01:04:51.450Z,-1.80
2017-12-10T01:07:18.988Z,-1.80
2017-12-10T01:09:46.559Z,-1.90
2017-12-10T01:12:14.175Z,-2.00
2017-12-10T01:14:48.440Z,-2.00
2017-12-10T01:17:16.819Z,-2.00
2017-12-10T01:19:44.400Z,-2.10
2017-12-10T01:22:11.981Z,-2.10
2017-12-10T01:24:39.594Z,-2.10
2017-12-10T01:27:07.145Z,-2.10
2017-12-10T01:29:34.701Z,-2.10
2017-12-10T01:32:02.293Z,-2.20
2017-12-10T01:34:29.855Z,-2.20
2017-12-10T01:36:57.424Z,-2.30
2017-12-10T01:39:25.004Z,-2.30
2017-12-10T01:41:52.552Z,-2.30
2017-12-10T01:44:20.914Z,-2.30
2017-12-10T01:46:48.555Z,-2.30
2017-12-10T01:49:16.114Z,-2.30
2017-12-10T01:51:43.673Z,-2.20
2017-12-10T01:54:11.265Z,-2.20
2017-12-10T01:56:38.820Z,-2.20
2017-12-10T01:59:06.392Z,-2.20
2017-12-10T02:01:34.029Z,-2.20
2017-12-10T02:04:01.591Z,-2.20
2017-12-10T02:06:29.157Z,-2.10
2017-12-10T02:08:56.735Z,-2.10
2017-12-10T02:11:24.319Z,-2.10
2017-12-10T02:13:51.884Z,-2.10
2017-12-10T02:16:19.475Z,-2.10
2017-12-10T02:18:47.040Z,-2.10
2017-12-10T02:21:14.590Z,-2.20
2017-12-10T02:23:42.150Z,-2.20
2017-12-10T02:26:09.695Z,-2.30
2017-12-10T02:28:37.305Z,-2.30
2017-12-10T02:31:04.867Z,-2.30
2017-12-10T02:33:32.455Z,-2.30
2017-12-10T02:36:00.790Z,-2.30
2017-12-10T02:38:28.369Z,-2.30
2017-12-10T02:40:55.986Z,-2.30
2017-12-10T02:43:23.584Z,-2.30
2017-12-10T02:45:51.138Z,-2.30
2017-12-10T02:48:18.726Z,-2.30
2017-12-10T02:50:46.285Z,-2.30
2017-12-10T02:53:13.866Z,-2.30
2017-12-10T02:55:41.466Z,-2.30
2017-12-10T02:58:09.036Z,-2.30
2017-12-10T03:00:36.630Z,-2.30
2017-12-10T03:03:04.212Z,-2.20
2017-12-10T03:05:32.547Z,-2.10
2017-12-10T03:08:00.141Z,-2.10
2017-12-10T03:10:28.621Z,-2.10
2017-12-10T03:12:56.198Z,-2.10
2017-12-10T03:15:23.783Z,-2.10
2017-12-10T03:17:51.376Z,-2.10
2017-12-10T03:20:18.987Z,-2.10
2017-12-10T03:22:46.545Z,-2.20
2017-12-10T03:25:14.203Z,-2.20
2017-12-10T03:27:41.731Z,-2.30
2017-12-10T03:30:09.308Z,-2.30
2017-12-10T03:32:37.632Z,-2.30
2017-12-10T03:35:05.218Z,-2.40
2017-12-10T03:37:32.805Z,-2.30
2017-12-10T03:40:09.074Z,-2.40
2017-12-10T03:42:37.430Z,-2.30
2017-12-10T03:45:04.990Z,-2.30
2017-12-10T03:47:32.568Z,-2.20
2017-12-10T03:50:00.882Z,-2.00
2017-12-10T03:52:28.462Z,-2.00
2017-12-10T03:54:56.014Z,-2.00
2017-12-10T03:57:23.592Z,-1.90
2017-12-10T03:59:51.153Z,-1.80
2017-12-10T04:02:18.707Z,-1.80
2017-12-10T04:04:46.279Z,-1.70
2017-12-10T04:07:13.867Z,-1.70
2017-12-10T04:09:42.190Z,-1.60
2017-12-10T04:12:09.755Z,-1.60
2017-12-10T04:14:37.311Z,-1.60
2017-12-10T04:17:04.871Z,-1.60
2017-12-10T04:19:32.455Z,-1.60
2017-12-10T04:22:00.031Z,-1.50
2017-12-10T04:24:27.682Z,-1.50
2017-12-10T04:26:55.212Z,-1.50
2017-12-10T04:29:22.788Z,-1.50
2017-12-10T04:31:50.391Z,-1.40
2017-12-10T04:34:17.981Z,-1.40
2017-12-10T04:36:45.573Z,-1.40
2017-12-10T04:39:13.150Z,-1.40
2017-12-10T04:41:40.883Z,-1.40
2017-12-10T04:44:08.460Z,-1.40
2017-12-10T04:46:36.064Z,-1.40
2017-12-10T04:49:04.409Z,-1.30
2017-12-10T04:51:31.997Z,-1.30
2017-12-10T04:54:00.332Z,-1.20
2017-12-10T04:56:27.896Z,-1.20
2017-12-10T04:58:55.466Z,-1.20
2017-12-10T05:01:23.035Z,-1.20
2017-12-10T05:03:50.587Z,-1.20
2017-12-10T05:06:18.163Z,-1.20
2017-12-10T05:08:45.758Z,-1.10
2017-12-10T05:11:13.354Z,-1.10
2017-12-10T05:13:40.956Z,-1.00
2017-12-10T05:16:09.303Z,-1.00
2017-12-10T05:18:36.856Z,-1.00
2017-12-10T05:21:04.432Z,-0.90
2017-12-10T05:23:32.022Z,-0.90
2017-12-10T05:26:00.399Z,-0.90
2017-12-10T05:28:28.772Z,-0.90
2017-12-10T05:30:56.328Z,-0.90
2017-12-10T05:33:23.915Z,-1.00
2017-12-10T05:35:51.486Z,-1.00
2017-12-10T05:38:19.093Z,-1.00
2017-12-10T05:40:46.687Z,-1.00
2017-12-10T05:43:15.011Z,-0.90
2017-12-10T05:45:42.591Z,-1.00
2017-12-10T05:48:10.166Z,-0.90
2017-12-10T05:50:37.768Z,-1.00
2017-12-10T05:53:05.357Z,-1.00
2017-12-10T05:55:32.928Z,-1.00
2017-12-10T05:58:00.487Z,-1.00
2017-12-10T06:00:28.063Z,-1.00
2017-12-10T06:02:55.619Z,-1.00
2017-12-10T06:05:23.190Z,-1.00
2017-12-10T06:07:50.788Z,-1.00
2017-12-10T06:10:18.359Z,-1.00
2017-12-10T06:12:45.975Z,-1.00
2017-12-10T06:15:13.523Z,-1.00
2017-12-10T06:17:41.135Z,-0.90
2017-12-10T06:20:09.667Z,-0.90
2017-12-10T06:22:37.235Z,-0.90
2017-12-10T06:25:04.810Z,-0.90
2017-12-10T06:27:33.195Z,-0.90
2017-12-10T06:30:00.766Z,-0.90
2017-12-10T06:32:28.349Z,-0.90
2017-12-10T06:34:55.955Z,-0.90
2017-12-10T06:37:24.362Z,-0.90
2017-12-10T06:39:52.726Z,-0.90
2017-12-10T06:42:21.044Z,-0.80
2017-12-10T06:44:48.639Z,-0.90
2017-12-10T06:47:18.146Z,-0.80
2017-12-10T06:49:45.707Z,-0.90
2017-12-10T06:52:13.302Z,-0.90
2017-12-10T06:54:41.670Z,-0.90
2017-12-10T06:57:10.043Z,-0.90
2017-12-10T06:59:38.394Z,-0.90
2017-12-10T07:02:05.998Z,-0.90
2017-12-10T07:04:34.363Z,-1.00
2017-12-10T07:07:01.923Z,-1.00
2017-12-10T07:09:29.494Z,-1.00
2017-12-10T07:11:57.078Z,-1.10
2017-12-10T07:14:24.645Z,-1.20
2017-12-10T07:16:52.248Z,-1.30
2017-12-10T07:19:19.849Z,-1.40
2017-12-10T07:21:48.190Z,-1.60
2017-12-10T07:24:15.789Z,-1.60
2017-12-10T07:26:43.362Z,-1.60
2017-12-10T07:29:12.854Z,-1.60
2017-12-10T07:31:40.391Z,-1.60
2017-12-10T07:34:08.752Z,-1.60
2017-12-10T07:36:36.397Z,-1.70
2017-12-10T07:39:03.952Z,-1.60
2017-12-10T07:41:31.502Z,-1.60
2017-12-10T07:43:59.881Z,-1.60
2017-12-10T07:46:27.454Z,-1.50
2017-12-10T07:48:58.134Z,-1.40
2017-12-10T07:51:26.481Z,-1.30
2017-12-10T07:54:04.363Z,-1.30
2017-12-10T07:56:31.930Z,-1.30
2017-12-10T07:58:59.530Z,-1.30
2017-12-10T08:01:27.898Z,-1.30
2017-12-10T08:03:55.472Z,-1.30
2017-12-10T08:06:23.885Z,-1.30
2017-12-10T08:08:51.508Z,-1.30
2017-12-10T08:11:23.442Z,-1.20
2017-12-10T08:13:51.069Z,-1.20
2017-12-10T08:16:18.648Z,-1.10
2017-12-10T08:18:46.207Z,-1.10
2017-12-10T08:21:13.796Z,-1.00
2017-12-10T08:23:41.395Z,-0.90
2017-12-10T08:26:23.891Z,-0.80
2017-12-10T08:28:52.207Z,-0.80
2017-12-10T08:31:19.799Z,-0.80
2017-12-10T08:33:47.359Z,-0.80
2017-12-10T08:36:15.027Z,-0.70
2017-12-10T08:38:42.623Z,-0.70
2017-12-10T08:41:10.962Z,-0.50
2017-12-10T08:43:38.515Z,-0.50
2017-12-10T08:46:13.571Z,-0.50
2017-12-10T08:48:41.148Z,-0.50
2017-12-10T08:51:19.373Z,-0.40
2017-12-10T08:53:47.674Z,-0.50
2017-12-10T08:56:15.279Z,-0.50
2017-12-10T08:58:42.834Z,-0.40
2017-12-10T09:01:10.484Z,-0.40
2017-12-10T09:03:38.060Z,-0.40
2017-12-10T09:06:05.798Z,-0.40
2017-12-10T09:08:33.447Z,-0.40
2017-12-10T09:11:01.006Z,-0.40
2017-12-10T09:13:28.591Z,-0.40
2017-12-10T09:15:56.137Z,-0.40
2017-12-10T09:18:23.732Z,-0.40
2017-12-10T09:20:51.285Z,-0.40
2017-12-10T09:23:18.900Z,-0.50
2017-12-10T09:28:45.876Z,-0.40
2017-12-10T09:31:13.484Z,-0.40
2017-12-10T09:33:42.089Z,-0.40
2017-12-10T09:36:10.411Z,-0.40
2017-12-10T09:38:37.998Z,-0.40
2017-12-10T09:41:05.556Z,-0.40
2017-12-10T09:43:33.120Z,-0.40
2017-12-10T09:46:00.682Z,-0.40
2017-12-10T09:48:28.237Z,-0.40
2017-12-10T09:50:55.813Z,-0.30
2017-12-10T09:53:23.386Z,-0.40
2017-12-10T09:58:52.303Z,-0.40
2017-12-10T10:01:20.651Z,-0.60
2017-12-10T10:03:48.214Z,-0.60
2017-12-10T10:06:15.765Z,-0.70
2017-12-10T10:08:43.369Z,-0.80
2017-12-10T10:11:10.925Z,-0.90
2017-12-10T10:13:39.287Z,-1.10
2017-12-10T10:16:07.627Z,-1.20
2017-12-10T10:18:35.189Z,-1.20
2017-12-10T10:21:04.682Z,-1.20
2017-12-10T10:23:32.274Z,-1.20
2017-12-10T10:25:59.838Z,-1.30
2017-12-10T10:28:27.428Z,-1.40
2017-12-10T10:30:55.768Z,-1.50
2017-12-10T10:33:30.445Z,-1.50
2017-12-10T10:35:58.044Z,-1.60
2017-12-10T10:38:42.000Z,-1.70
2017-12-10T10:41:10.342Z,-1.80
2017-12-10T10:43:37.986Z,-1.80
2017-12-10T10:46:28.138Z,-1.80
2017-12-10T10:48:55.703Z,-1.80
2017-12-10T10:51:23.250Z,-1.80
2017-12-10T10:53:50.838Z,-1.80
2017-12-10T10:56:18.418Z,-1.80
2017-12-10T10:58:46.779Z,-1.80
2017-12-10T11:01:14.344Z,-1.80
2017-12-10T11:03:42.697Z,-1.80
2017-12-10T11:06:10.277Z,-1.80
2017-12-10T11:08:38.598Z,-1.70
2017-12-10T11:11:24.000Z,-1.80
2017-12-10T11:13:51.567Z,-1.70
2017-12-10T11:16:19.178Z,-1.70
2017-12-10T11:18:47.518Z,-1.60
2017-12-10T11:21:15.091Z,-1.60
2017-12-10T11:23:42.663Z,-1.60
2017-12-10T11:26:10.990Z,-1.50
2017-12-10T11:28:41.080Z,-1.50
2017-12-10T11:31:08.687Z,-1.40
2017-12-10T11:33:36.259Z,-1.40
2017-12-10T11:36:03.819Z,-1.40
2017-12-10T11:38:31.403Z,-1.40
2017-12-10T11:40:59.017Z,-1.40
2017-12-10T11:43:27.466Z,-1.40
2017-12-10T11:45:55.839Z,-1.30
2017-12-10T11:48:24.181Z,-1.20
2017-12-10T11:50:51.734Z,-1.20
2017-12-10T11:53:19.347Z,-1.20
2017-12-10T11:55:46.943Z,-1.20
2017-12-10T11:58:14.553Z,-1.20
2017-12-10T12:00:42.195Z,-1.20
2017-12-10T12:03:09.751Z,-1.20
2017-12-10T12:05:37.343Z,-1.10
2017-12-10T12:08:04.919Z,-1.20
2017-12-10T12:10:32.486Z,-1.20
2017-12-10T12:13:21.700Z,-1.20
2017-12-10T12:15:49.332Z,-1.20
2017-12-10T12:18:16.958Z,-1.10
2017-12-10T12:20:45.307Z,-0.90
2017-12-10T12:23:12.860Z,-1.00
2017-12-10T12:25:40.481Z,-0.90
2017-12-10T12:28:08.055Z,-0.80
2017-12-10T12:30:35.641Z,-0.70
2017-12-10T12:33:03.272Z,-0.60
2017-12-10T12:35:30.838Z,-0.60
2017-12-10T12:37:58.523Z,-0.50
2017-12-10T12:40:26.082Z,-0.50
2017-12-10T12:42:53.658Z,-0.40
2017-12-10T12:45:21.217Z,-0.40
2017-12-10T12:47:48.794Z,-0.40
2017-12-10T12:50:17.128Z,-0.40
2017-12-10T12:52:44.714Z,-0.40
2017-12-10T12:55:12.331Z,-0.30
2017-12-10T12:57:40.736Z,-0.30
2017-12-10T13:00:08.290Z,-0.30
2017-12-10T13:02:35.862Z,-0.20
2017-12-10T13:05:03.407Z,-0.20
2017-12-10T13:07:30.987Z,-0.20
2017-12-10T13:09:58.652Z,-0.10
2017-12-10T13:12:31.837Z,-0.10
2017-12-10T13:14:59.399Z,0.00
2017-12-10T13:17:27.982Z,0.10
2017-12-10T13:19:55.596Z,0.10
2017-12-10T13:22:23.157Z,0.10
2017-12-10T13:24:55.708Z,0.20
2017-12-10T13:27:23.264Z,0.30
2017-12-10T13:29:50.815Z,0.40
2017-12-10T13:32:20.325Z,0.60
2017-12-10T13:34:47.883Z,0.70
2017-12-10T13:37:18.836Z,0.70
2017-12-10T13:39:53.280Z,0.80
2017-12-10T13:42:22.061Z,1.00
2017-12-10T13:44:50.363Z,1.20
2017-12-10T13:47:17.914Z,1.20
2017-12-10T13:49:45.587Z,1.30
2017-12-10T13:52:13.140Z,1.40
2017-12-10T13:54:45.607Z,1.40
2017-12-10T13:57:13.166Z,1.50
2017-12-10T13:59:40.739Z,1.50
2017-12-10T14:02:08.986Z,1.50
2017-12-10T14:04:36.559Z,1.60
2017-12-10T14:07:04.165Z,1.60
2017-12-10T14:09:31.752Z,1.60
2017-12-10T14:11:59.315Z,1.70
2017-12-10T14:14:26.861Z,1.70
2017-12-10T14:17:00.598Z,1.80
2017-12-10T14:19:28.923Z,1.70
2017-12-10T14:21:56.534Z,1.70
2017-12-10T14:24:24.110Z,1.70
2017-12-10T14:26:52.070Z,1.70
2017-12-10T14:29:20.417Z,1.80
2017-12-10T14:31:48.070Z,1.80
2017-12-10T14:34:16.638Z,1.80
2017-12-10T14:36:44.191Z,1.80
2017-12-10T14:39:13.696Z,1.70
2017-12-10T14:41:41.264Z,1.70
2017-12-10T14:44:08.828Z,1.80
2017-12-10T14:46:36.382Z,1.80
2017-12-10T14:49:28.531Z,1.80
2017-12-10T14:51:56.126Z,1.80
2017-12-10T14:54:23.643Z,1.80
2017-12-10T14:56:51.179Z,1.90
2017-12-10T14:59:18.751Z,1.90
2017-12-10T15:01:46.313Z,1.90
2017-12-10T15:04:13.870Z,2.00
2017-12-10T15:06:41.426Z,2.00
2017-12-10T15:09:08.989Z,2.00
2017-12-10T15:11:36.558Z,2.00
2017-12-10T15:14:05.053Z,2.10
2017-12-10T15:16:32.611Z,2.10
2017-12-10T15:19:00.915Z,2.20
2017-12-10T15:21:28.459Z,2.10
2017-12-10T15:23:56.060Z,2.20
2017-12-10T15:26:24.393Z,2.30
2017-12-10T15:28:51.939Z,2.20
2017-12-10T15:31:19.510Z,2.20
2017-12-10T15:33:47.132Z,2.20
2017-12-10T15:36:14.706Z,2.30
2017-12-10T15:38:42.266Z,2.30
2017-12-10T15:41:09.846Z,2.30
2017-12-10T15:43:37.387Z,2.40
2017-12-10T15:46:04.943Z,2.40
2017-12-10T15:48:32.523Z,2.50
2017-12-10T15:51:00.884Z,2.50
2017-12-10T15:53:31.455Z,2.40
2017-12-10T15:55:59.043Z,2.40
2017-12-10T15:58:27.378Z,2.20
2017-12-10T16:00:54.984Z,2.20
2017-12-10T16:03:23.346Z,2.10
2017-12-10T16:05:50.954Z,2.10
2017-12-10T16:08:18.534Z,2.00
2017-12-10T16:10:46.086Z,2.30
2017-12-10T16:13:13.643Z,2.60
2017-12-10T16:15:41.196Z,2.70
2017-12-10T16:18:08.795Z,2.80
2017-12-10T16:20:36.369Z,2.90
2017-12-10T16:23:03.920Z,3.10
2017-12-10T16:25:31.478Z,3.40
2017-12-10T16:27:59.035Z,3.40
2017-12-10T16:30:26.623Z,3.50
2017-12-10T16:32:54.211Z,3.60
2017-12-10T16:35:21.797Z,3.70
2017-12-10T16:37:50.142Z,3.80
2017-12-10T16:40:18.494Z,3.80
2017-12-10T16:42:46.091Z,3.80
2017-12-10T16:45:13.671Z,3.80
2017-12-10T16:47:41.218Z,3.80
2017-12-10T16:50:08.797Z,3.80
2017-12-10T16:52:36.350Z,3.80
2017-12-10T16:55:03.910Z,3.90
2017-12-10T16:57:31.456Z,3.80
2017-12-10T16:59:59.059Z,3.80
2017-12-10T17:02:27.546Z,3.80
2017-12-10T17:04:55.078Z,3.90
2017-12-10T17:07:22.671Z,3.90
2017-12-10T17:09:51.213Z,3.90
2017-12-10T17:12:18.762Z,3.90
2017-12-10T17:14:46.311Z,3.90
2017-12-10T17:17:13.865Z,3.90
2017-12-10T17:19:42.969Z,4.00
2017-12-10T17:22:10.510Z,4.00
2017-12-10T17:24:38.074Z,4.10
2017-12-10T17:27:05.646Z,4.10
2017-12-10T17:29:33.203Z,4.20
2017-12-10T17:32:01.556Z,4.20
2017-12-10T17:34:29.122Z,4.20
2017-12-10T17:36:56.653Z,4.30
2017-12-10T17:39:25.231Z,4.40
2017-12-10T17:41:52.777Z,4.50
2017-12-10T17:44:22.282Z,4.60
2017-12-10T17:46:49.841Z,4.80
2017-12-10T17:49:22.347Z,4.90
2017-12-10T17:51:50.904Z,5.10
2017-12-10T17:54:30.739Z,5.00
2017-12-10T17:56:58.274Z,5.10
2017-12-10T17:59:26.597Z,5.20
2017-12-10T18:01:54.183Z,5.10
2017-12-10T18:04:21.733Z,5.20
2017-12-10T18:06:50.152Z,5.20
2017-12-10T18:09:17.735Z,5.20
2017-12-10T18:11:46.098Z,5.40
2017-12-10T18:14:14.403Z,5.40
2017-12-10T18:16:43.916Z,5.40
2017-12-10T18:19:11.486Z,5.40
2017-12-10T18:21:40.047Z,5.40
2017-12-10T18:24:07.602Z,5.50
2017-12-10T18:26:36.160Z,5.50
2017-12-10T18:29:04.519Z,5.70
2017-12-10T18:31:33.206Z,5.40
2017-12-10T18:34:00.759Z,5.40
2017-12-10T18:36:28.342Z,5.30
2017-12-10T18:39:04.542Z,5.10
2017-12-10T18:41:32.858Z,5.10
2017-12-10T18:44:00.471Z,5.00
2017-12-10T18:46:28.056Z,5.00
2017-12-10T18:48:55.622Z,4.90
2017-12-10T18:51:23.186Z,4.80
2017-12-10T18:53:50.738Z,4.80
2017-12-10T18:56:18.336Z,4.80
2017-12-10T18:58:45.907Z,4.80
2017-12-10T19:01:14.256Z,4.90
2017-12-10T19:03:42.836Z,4.90
2017-12-10T19:06:10.377Z,4.90
2017-12-10T19:08:42.723Z,4.90
2017-12-10T19:11:14.140Z,4.90
2017-12-10T19:13:41.733Z,5.10
2017-12-10T19:16:09.319Z,5.20
2017-12-10T19:18:36.877Z,5.10
2017-12-10T19:21:04.435Z,5.10
2017-12-10T19:23:31.997Z,5.00
2017-12-10T19:25:59.561Z,5.00
2017-12-10T19:28:27.130Z,5.00
2017-12-10T19:30:54.684Z,4.90
2017-12-10T19:33:22.242Z,5.00
2017-12-10T19:35:49.802Z,5.10
2017-12-10T19:38:17.384Z,5.10
2017-12-10T19:40:44.951Z,5.10
2017-12-10T19:43:12.505Z,5.20
2017-12-10T19:45:40.066Z,5.20
2017-12-10T19:48:07.626Z,5.20
2017-12-10T19:50:35.195Z,5.10
2017-12-10T19:53:02.773Z,5.10
2017-12-10T19:55:30.315Z,5.10
2017-12-10T19:57:57.895Z,5.00
2017-12-10T20:00:25.501Z,5.10
2017-12-10T20:02:53.104Z,5.10
2017-12-10T20:05:20.666Z,5.20
2017-12-10T20:07:48.253Z,5.10
2017-12-10T20:10:16.555Z,5.10
2017-12-10T20:12:44.134Z,5.10
2017-12-10T20:15:15.595Z,5.00
2017-12-10T20:17:43.163Z,5.10
2017-12-10T20:20:10.748Z,5.10
2017-12-10T20:22:38.311Z,5.00
2017-12-10T20:25:06.622Z,5.00
2017-12-10T20:27:34.180Z,5.00
2017-12-10T20:30:01.746Z,4.90
2017-12-10T20:32:29.354Z,4.90
2017-12-10T20:34:56.906Z,4.90
2017-12-10T20:37:24.465Z,4.90
2017-12-10T20:39:52.020Z,5.00
2017-12-10T20:42:19.576Z,5.00
2017-12-10T20:44:47.164Z,5.00
2017-12-10T20:47:14.710Z,5.00
2017-12-10T20:49:42.278Z,5.00
2017-12-10T20:52:09.830Z,5.10
2017-12-10T20:54:37.408Z,5.00
2017-12-10T20:57:04.998Z,5.10
2017-12-10T20:59:32.690Z,5.20
2017-12-10T21:02:00.240Z,5.10
2017-12-10T21:04:27.783Z,5.10
2017-12-10T21:06:55.334Z,5.00
2017-12-10T21:09:22.917Z,5.00
2017-12-10T21:11:50.492Z,5.00
2017-12-10T21:14:18.113Z,5.10
2017-12-10T21:16:46.430Z,5.20
2017-12-10T21:19:14.226Z,5.20
2017-12-10T21:21:41.807Z,5.20
2017-12-10T21:24:09.412Z,5.20
2017-12-10T21:26:36.979Z,5.20
2017-12-10T21:29:04.551Z,5.30
2017-12-10T21:31:32.126Z,5.20
2017-12-10T21:33:59.748Z,5.20
2017-12-10T21:36:27.298Z,5.20
2017-12-10T21:38:54.851Z,5.20
2017-12-10T21:41:22.411Z,5.10
2017-12-10T21:43:49.984Z,5.10
2017-12-10T21:46:17.572Z,5.20
2017-12-10T21:48:45.172Z,5.20
2017-12-10T21:51:13.505Z,5.30
2017-12-10T21:53:41.070Z,5.30
2017-12-10T21:56:08.631Z,5.30
2017-12-10T21:58:36.262Z,5.30
2017-12-10T22:01:03.836Z,5.30
2017-12-10T22:03:31.395Z,5.30
2017-12-10T22:05:58.966Z,5.20
2017-12-10T22:08:26.543Z,5.20
2017-12-10T22:10:54.161Z,5.30
2017-12-10T22:13:21.752Z,5.30
2017-12-10T22:15:49.859Z,5.40
2017-12-10T22:18:18.203Z,5.30
2017-12-10T22:20:45.765Z,5.30
2017-12-10T22:23:13.344Z,5.30
2017-12-10T22:25:40.888Z,5.40
2017-12-10T22:28:09.290Z,5.40
2017-12-10T22:30:36.866Z,5.40
2017-12-10T22:33:05.193Z,5.50
2017-12-10T22:35:32.773Z,5.50
2017-12-10T22:38:00.341Z,5.50
2017-12-10T22:40:27.891Z,5.50
2017-12-10T22:42:55.457Z,5.50
2017-12-10T22:45:23.011Z,5.50
2017-12-10T22:47:50.588Z,5.50
2017-12-10T22:50:18.140Z,5.50
2017-12-10T22:52:45.712Z,5.50
2017-12-10T22:55:13.269Z,5.40
2017-12-10T22:57:40.822Z,5.40
2017-12-10T23:00:08.407Z,5.50
2017-12-10T23:02:36.750Z,5.50
2017-12-10T23:05:04.287Z,5.50
2017-12-10T23:07:31.851Z,5.50
2017-12-10T23:09:59.386Z,5.50
2017-12-10T23:12:27.751Z,5.40
2017-12-10T23:15:22.028Z,5.40
2017-12-10T23:17:50.368Z,5.40
2017-12-10T23:20:33.623Z,5.40
2017-12-10T23:23:01.190Z,5.40
2017-12-10T23:25:28.740Z,5.40
2017-12-10T23:27:56.286Z,5.40
2017-12-10T23:30:23.857Z,5.40
2017-12-10T23:32:51.413Z,5.50
2017-12-10T23:35:19.006Z,5.40
2017-12-10T23:37:47.335Z,5.50
2017-12-10T23:40:14.883Z,5.50
2017-12-10T23:42:42.509Z,5.40
2017-12-10T23:45:10.842Z,5.40
2017-12-10T23:47:38.417Z,5.40
2017-12-10T23:50:05.949Z,5.30
2017-12-10T23:52:33.486Z,5.30
2017-12-10T23:55:01.034Z,5.20
2017-12-10T23:57:29.331Z,5.20
2017-12-10T23:59:56.920Z,5.20
